createdAt,value
2016-05-06T00:00:05.867Z,12.74
2016-05-06T00:01:05.853Z,12.7
2016-05-06T00:02:05.839Z,12.64
2016-05-06T00:03:05.828Z,12.69
2016-05-06T00:04:05.815Z,12.69
2016-05-06T00:05:05.802Z,12.7
2016-05-06T00:06:05.788Z,12.63
2016-05-06T00:07:05.619Z,12.7
2016-05-06T00:08:05.590Z,12.66
2016-05-06T00:09:05.766Z,12.69
2016-05-06T00:10:05.736Z,12.66
2016-05-06T00:11:05.724Z,12.51
2016-05-06T00:12:05.554Z,12.51
2016-05-06T00:13:05.699Z,12.52
2016-05-06T00:14:05.685Z,12.51
2016-05-06T00:15:05.657Z,12.45
2016-05-06T00:16:05.659Z,12.52
2016-05-06T00:17:05.646Z,12.54
2016-05-06T00:18:05.632Z,12.49
2016-05-06T00:19:05.621Z,12.49
2016-05-06T00:20:05.607Z,12.45
2016-05-06T00:21:05.587Z,12.37
2016-05-06T00:22:05.575Z,12.51
2016-05-06T00:23:05.405Z,12.41
2016-05-06T00:24:05.549Z,12.34
2016-05-06T00:25:05.379Z,12.33
2016-05-06T00:26:05.241Z,12.42
2016-05-06T00:27:05.510Z,12.33
2016-05-06T00:28:05.513Z,12.33
2016-05-06T00:29:05.328Z,12.26
2016-05-06T00:30:05.471Z,12.24
2016-05-06T00:31:05.474Z,12.24
2016-05-06T00:32:05.445Z,12.24
2016-05-06T00:33:05.635Z,12.24
2016-05-06T00:34:05.420Z,12.29
2016-05-06T00:35:05.437Z,12.24
2016-05-06T00:36:05.394Z,12.24
2016-05-06T00:37:05.381Z,12.2
2016-05-06T00:38:05.398Z,12.21
2016-05-06T00:39:05.370Z,12.23
2016-05-06T00:40:05.342Z,12.19
2016-05-06T00:41:05.344Z,12.12
2016-05-06T00:42:05.316Z,12.05
2016-05-06T00:43:05.303Z,12.05
2016-05-06T00:44:05.306Z,12.13
2016-05-06T00:45:05.121Z,12.11
2016-05-06T00:46:05.264Z,12.02
2016-05-06T00:47:05.251Z,12.04
2016-05-06T00:48:05.082Z,12.05
2016-05-06T00:49:05.225Z,12.04
2016-05-06T00:50:05.056Z,12.11
2016-05-06T00:51:05.183Z,12.02
2016-05-06T00:52:05.186Z,12.04
2016-05-06T00:53:05.018Z,12.01
2016-05-06T00:54:05.161Z,12.04
2016-05-06T00:55:05.132Z,12.04
2016-05-06T00:56:05.197Z,12.05
2016-05-06T00:57:05.122Z,12.02
2016-05-06T00:58:05.109Z,12.13
2016-05-06T00:59:05.096Z,12.06
2016-05-06T01:00:05.082Z,12.06
2016-05-06T01:01:05.055Z,12.05
2016-05-06T01:02:04.885Z,12.09
2016-05-06T01:03:05.060Z,12.09
2016-05-06T01:04:04.875Z,12.11
2016-05-06T01:05:05.018Z,12.08
2016-05-06T01:06:05.021Z,11.94
2016-05-06T01:07:04.821Z,11.94
2016-05-06T01:08:04.964Z,11.97
2016-05-06T01:09:04.951Z,12.01
2016-05-06T01:10:04.939Z,11.97
2016-05-06T01:11:04.659Z,11.96
2016-05-06T01:12:04.912Z,11.96
2016-05-06T01:13:04.899Z,11.99
2016-05-06T01:14:04.887Z,11.96
2016-05-06T01:15:04.873Z,11.97
2016-05-06T01:16:04.861Z,11.96
2016-05-06T01:17:04.847Z,11.94
2016-05-06T01:18:04.678Z,12.01
2016-05-06T01:19:04.838Z,11.93
2016-05-06T01:20:04.809Z,11.96
2016-05-06T01:21:04.483Z,12.01
2016-05-06T01:22:04.798Z,11.94
2016-05-06T01:23:04.770Z,11.99
2016-05-06T01:24:04.757Z,12.01
2016-05-06T01:25:04.744Z,11.99
2016-05-06T01:26:05.168Z,11.99
2016-05-06T01:27:04.719Z,11.89
2016-05-06T01:28:04.705Z,11.85
2016-05-06T01:29:04.677Z,11.97
2016-05-06T01:30:04.679Z,11.93
2016-05-06T01:31:04.666Z,11.89
2016-05-06T01:32:04.654Z,11.94
2016-05-06T01:33:04.640Z,11.96
2016-05-06T01:34:04.628Z,11.93
2016-05-06T01:35:04.598Z,11.96
2016-05-06T01:36:04.618Z,11.97
2016-05-06T01:37:04.589Z,11.9
2016-05-06T01:38:04.559Z,11.94
2016-05-06T01:39:04.547Z,11.93
2016-05-06T01:40:04.551Z,11.99
2016-05-06T01:41:04.537Z,11.96
2016-05-06T01:42:04.508Z,12.02
2016-05-06T01:43:04.496Z,11.99
2016-05-06T01:44:04.483Z,11.9
2016-05-06T01:45:04.470Z,11.89
2016-05-06T01:46:04.456Z,11.97
2016-05-06T01:47:04.444Z,11.93
2016-05-06T01:48:04.275Z,11.99
2016-05-06T01:49:04.262Z,11.89
2016-05-06T01:50:04.249Z,11.87
2016-05-06T01:51:04.391Z,11.89
2016-05-06T01:52:04.380Z,11.93
2016-05-06T01:53:04.211Z,11.9
2016-05-06T01:54:04.197Z,11.78
2016-05-06T01:55:04.355Z,11.78
2016-05-06T01:56:04.328Z,11.82
2016-05-06T01:57:04.315Z,11.82
2016-05-06T01:58:04.302Z,11.8
2016-05-06T01:59:04.132Z,11.68
2016-05-06T02:00:04.119Z,11.65
2016-05-06T02:01:04.107Z,11.7
2016-05-06T02:02:04.249Z,11.7
2016-05-06T02:03:04.237Z,11.71
2016-05-06T02:04:04.223Z,11.68
2016-05-06T02:05:04.212Z,11.71
2016-05-06T02:06:04.198Z,11.67
2016-05-06T02:07:04.185Z,11.68
2016-05-06T02:08:04.172Z,11.71
2016-05-06T02:09:04.143Z,11.64
2016-05-06T02:10:03.975Z,11.65
2016-05-06T02:11:03.977Z,11.67
2016-05-06T02:12:04.136Z,11.64
2016-05-06T02:13:04.108Z,11.61
2016-05-06T02:14:03.939Z,11.68
2016-05-06T02:15:04.066Z,11.68
2016-05-06T02:16:03.897Z,11.64
2016-05-06T02:17:04.040Z,11.64
2016-05-06T02:18:04.059Z,11.65
2016-05-06T02:19:03.999Z,11.64
2016-05-06T02:20:04.002Z,11.65
2016-05-06T02:21:03.973Z,11.65
2016-05-06T02:22:03.975Z,11.53
2016-05-06T02:23:03.978Z,11.56
2016-05-06T02:24:03.937Z,11.54
2016-05-06T02:25:03.940Z,11.49
2016-05-06T02:26:04.006Z,11.53
2016-05-06T02:27:03.899Z,11.49
2016-05-06T02:28:03.886Z,11.47
2016-05-06T02:29:03.873Z,11.52
2016-05-06T02:30:03.860Z,11.46
2016-05-06T02:31:03.707Z,11.31
2016-05-06T02:32:03.834Z,11.39
2016-05-06T02:33:04.024Z,11.39
2016-05-06T02:34:03.667Z,11.31
2016-05-06T02:35:03.795Z,11.35
2016-05-06T02:36:03.767Z,11.28
2016-05-06T02:37:03.769Z,11.36
2016-05-06T02:38:03.601Z,11.29
2016-05-06T02:39:03.728Z,11.32
2016-05-06T02:40:03.716Z,11.31
2016-05-06T02:41:03.905Z,11.31
2016-05-06T02:42:03.688Z,11.32
2016-05-06T02:43:03.520Z,11.25
2016-05-06T02:44:03.680Z,11.28
2016-05-06T02:45:03.651Z,11.29
2016-05-06T02:46:03.637Z,11.28
2016-05-06T02:47:03.469Z,11.24
2016-05-06T02:48:03.612Z,11.29
2016-05-06T02:49:03.598Z,11.29
2016-05-06T02:50:03.585Z,11.24
2016-05-06T02:51:03.418Z,11.19
2016-05-06T02:52:03.795Z,11.13
2016-05-06T02:53:03.547Z,11.17
2016-05-06T02:54:03.519Z,11.16
2016-05-06T02:55:03.520Z,11.14
2016-05-06T02:56:03.243Z,11.13
2016-05-06T02:57:03.339Z,11.14
2016-05-06T02:58:03.467Z,11.19
2016-05-06T02:59:03.454Z,11.13
2016-05-06T03:00:03.442Z,11.07
2016-05-06T03:01:03.428Z,11.19
2016-05-06T03:02:03.414Z,11.14
2016-05-06T03:03:03.090Z,11.11
2016-05-06T03:04:03.389Z,11.17
2016-05-06T03:05:03.220Z,11.09
2016-05-06T03:06:03.207Z,11.1
2016-05-06T03:07:03.381Z,11.02
2016-05-06T03:08:03.338Z,11.14
2016-05-06T03:09:03.324Z,11.1
2016-05-06T03:10:03.311Z,11.09
2016-05-06T03:11:02.986Z,11.02
2016-05-06T03:12:03.286Z,11.03
2016-05-06T03:13:03.272Z,11.07
2016-05-06T03:14:03.291Z,10.92
2016-05-06T03:15:03.246Z,11.01
2016-05-06T03:16:03.235Z,10.95
2016-05-06T03:17:03.237Z,10.98
2016-05-06T03:18:03.036Z,10.92
2016-05-06T03:19:03.023Z,10.86
2016-05-06T03:20:03.166Z,10.84
2016-05-06T03:21:03.044Z,10.81
2016-05-06T03:22:03.140Z,10.91
2016-05-06T03:23:02.971Z,10.8
2016-05-06T03:24:03.099Z,10.83
2016-05-06T03:25:03.102Z,10.78
2016-05-06T03:26:03.073Z,10.86
2016-05-06T03:27:03.076Z,10.78
2016-05-06T03:28:03.063Z,10.7
2016-05-06T03:29:03.034Z,10.74
2016-05-06T03:30:02.865Z,10.7
2016-05-06T03:31:02.853Z,10.71
2016-05-06T03:32:02.995Z,10.66
2016-05-06T03:33:02.842Z,10.7
2016-05-06T03:34:02.970Z,10.68
2016-05-06T03:35:02.956Z,10.71
2016-05-06T03:36:02.803Z,10.73
2016-05-06T03:37:02.931Z,10.71
2016-05-06T03:38:02.903Z,10.66
2016-05-06T03:39:02.749Z,10.68
2016-05-06T03:40:02.736Z,10.63
2016-05-06T03:41:03.014Z,10.68
2016-05-06T03:42:02.844Z,10.66
2016-05-06T03:43:02.846Z,10.71
2016-05-06T03:44:02.867Z,10.66
2016-05-06T03:45:02.807Z,10.63
2016-05-06T03:46:02.622Z,10.63
2016-05-06T03:47:02.781Z,10.62
2016-05-06T03:48:02.597Z,10.63
2016-05-06T03:49:02.583Z,10.6
2016-05-06T03:50:02.758Z,10.6
2016-05-06T03:51:02.557Z,10.63
2016-05-06T03:52:02.904Z,10.56
2016-05-06T03:53:02.516Z,10.55
2016-05-06T03:54:02.674Z,10.53
2016-05-06T03:55:02.647Z,10.56
2016-05-06T03:56:02.759Z,10.53
2016-05-06T03:57:02.480Z,10.53
2016-05-06T03:58:02.607Z,10.59
2016-05-06T03:59:02.454Z,10.53
2016-05-06T04:00:02.582Z,10.51
2016-05-06T04:01:02.569Z,10.51
2016-05-06T04:02:02.556Z,10.53
2016-05-06T04:03:02.542Z,10.55
2016-05-06T04:04:02.531Z,10.58
2016-05-06T04:05:02.361Z,10.59
2016-05-06T04:06:02.191Z,10.56
2016-05-06T04:07:02.476Z,10.55
2016-05-06T04:08:02.463Z,10.52
2016-05-06T04:09:02.450Z,10.47
2016-05-06T04:10:02.436Z,10.44
2016-05-06T04:11:02.440Z,10.47
2016-05-06T04:12:02.254Z,10.51
2016-05-06T04:13:02.414Z,10.51
2016-05-06T04:14:02.385Z,10.56
2016-05-06T04:15:02.372Z,10.51
2016-05-06T04:16:02.359Z,10.52
2016-05-06T04:17:02.346Z,10.55
2016-05-06T04:18:02.333Z,10.55
2016-05-06T04:19:02.163Z,10.53
2016-05-06T04:20:02.152Z,10.58
2016-05-06T04:21:02.279Z,10.56
2016-05-06T04:22:02.110Z,10.56
2016-05-06T04:23:02.268Z,10.56
2016-05-06T04:24:02.240Z,10.55
2016-05-06T04:25:02.071Z,10.46
2016-05-06T04:26:02.229Z,10.53
2016-05-06T04:27:02.201Z,10.56
2016-05-06T04:28:02.188Z,10.59
2016-05-06T04:29:02.176Z,10.56
2016-05-06T04:30:02.146Z,10.58
2016-05-06T04:31:02.134Z,10.55
2016-05-06T04:32:02.121Z,10.59
2016-05-06T04:33:02.312Z,10.51
2016-05-06T04:34:01.939Z,10.55
2016-05-06T04:35:02.082Z,10.51
2016-05-06T04:36:02.070Z,10.52
2016-05-06T04:37:02.056Z,10.56
2016-05-06T04:38:02.043Z,10.52
2016-05-06T04:39:02.014Z,10.55
2016-05-06T04:40:02.002Z,10.59
2016-05-06T04:41:02.348Z,10.52
2016-05-06T04:42:01.992Z,10.51
2016-05-06T04:43:01.963Z,10.52
2016-05-06T04:44:01.950Z,10.46
2016-05-06T04:45:01.969Z,10.47
2016-05-06T04:46:01.924Z,10.53
2016-05-06T04:47:01.911Z,10.43
2016-05-06T04:48:01.883Z,10.52
2016-05-06T04:49:01.870Z,10.46
2016-05-06T04:50:01.857Z,10.52
2016-05-06T04:51:01.860Z,10.46
2016-05-06T04:52:01.830Z,10.46
2016-05-06T04:53:01.818Z,10.52
2016-05-06T04:54:01.805Z,10.52
2016-05-06T04:55:01.793Z,10.53
2016-05-06T04:56:02.045Z,10.56
2016-05-06T04:57:01.766Z,10.53
2016-05-06T04:58:01.754Z,10.6
2016-05-06T04:59:01.724Z,10.55
2016-05-06T05:00:01.712Z,10.59
2016-05-06T05:01:01.714Z,10.66
2016-05-06T05:02:01.687Z,10.62
2016-05-06T05:03:01.689Z,10.66
2016-05-06T05:04:01.503Z,10.66
2016-05-06T05:05:01.648Z,10.65
2016-05-06T05:06:01.478Z,10.78
2016-05-06T05:07:01.621Z,10.63
2016-05-06T05:08:01.608Z,10.7
2016-05-06T05:09:01.440Z,10.73
2016-05-06T05:10:01.567Z,10.74
2016-05-06T05:11:01.437Z,10.81
2016-05-06T05:12:01.626Z,10.83
2016-05-06T05:13:01.504Z,10.8
2016-05-06T05:14:01.679Z,10.81
2016-05-06T05:15:01.714Z,10.81
2016-05-06T05:16:01.733Z,10.91
2016-05-06T05:17:01.738Z,10.84
2016-05-06T05:18:01.742Z,10.95
2016-05-06T05:19:01.745Z,10.95
2016-05-06T05:20:01.749Z,10.96
2016-05-06T05:21:01.732Z,10.99
2016-05-06T05:22:01.726Z,10.94
2016-05-06T05:23:01.750Z,10.98
2016-05-06T05:24:01.712Z,11.02
2016-05-06T05:25:01.706Z,11.06
2016-05-06T05:26:02.274Z,11.09
2016-05-06T05:27:01.702Z,11.09
2016-05-06T05:28:01.519Z,11.07
2016-05-06T05:29:01.665Z,11.1
2016-05-06T05:30:01.654Z,11.24
2016-05-06T05:31:01.642Z,11.19
2016-05-06T05:32:01.631Z,11.27
2016-05-06T05:33:01.462Z,11.27
2016-05-06T05:34:01.450Z,11.29
2016-05-06T05:35:01.594Z,11.35
2016-05-06T05:36:01.582Z,11.44
2016-05-06T05:37:01.568Z,11.49
2016-05-06T05:38:01.385Z,11.49
2016-05-06T05:39:01.544Z,11.59
2016-05-06T05:40:01.375Z,11.52
2016-05-06T05:41:01.800Z,11.62
2016-05-06T05:42:01.506Z,11.61
2016-05-06T05:43:01.493Z,11.7
2016-05-06T05:44:01.464Z,11.75
2016-05-06T05:45:01.452Z,11.82
2016-05-06T05:46:01.438Z,11.86
2016-05-06T05:47:01.426Z,11.94
2016-05-06T05:48:01.413Z,11.87
2016-05-06T05:49:01.400Z,11.99
2016-05-06T05:50:01.371Z,11.97
2016-05-06T05:51:01.218Z,12.04
2016-05-06T05:52:01.345Z,12.04
2016-05-06T05:53:01.348Z,12.13
2016-05-06T05:54:01.335Z,12.19
2016-05-06T05:55:01.323Z,12.27
2016-05-06T05:56:01.606Z,12.29
2016-05-06T05:57:01.296Z,12.33
2016-05-06T05:58:01.565Z,12.39
2016-05-06T05:59:01.270Z,12.41
2016-05-06T06:00:01.257Z,12.41
2016-05-06T06:01:01.229Z,12.45
2016-05-06T06:02:01.231Z,12.54
2016-05-06T06:03:01.062Z,12.44
2016-05-06T06:04:01.050Z,12.56
2016-05-06T06:05:01.192Z,12.63
2016-05-06T06:06:01.164Z,12.67
2016-05-06T06:07:01.011Z,12.66
2016-05-06T06:08:01.170Z,12.67
2016-05-06T06:09:01.125Z,12.71
2016-05-06T06:10:01.113Z,12.79
2016-05-06T06:11:01.333Z,12.85
2016-05-06T06:12:01.086Z,12.82
2016-05-06T06:13:01.074Z,12.87
2016-05-06T06:14:01.061Z,13.03
2016-05-06T06:15:01.064Z,12.96
2016-05-06T06:16:01.035Z,13.03
2016-05-06T06:17:01.021Z,13.14
2016-05-06T06:18:01.010Z,13.14
2016-05-06T06:19:00.996Z,13.11
2016-05-06T06:20:00.999Z,13.2
2016-05-06T06:21:00.971Z,13.25
2016-05-06T06:22:00.973Z,13.3
2016-05-06T06:23:00.960Z,13.33
2016-05-06T06:24:00.931Z,13.43
2016-05-06T06:25:00.763Z,13.44
2016-05-06T06:26:00.952Z,13.47
2016-05-06T06:27:00.893Z,13.58
2016-05-06T06:28:00.723Z,13.59
2016-05-06T06:29:00.867Z,13.61
2016-05-06T06:30:00.712Z,13.74
2016-05-06T06:31:00.857Z,13.67
2016-05-06T06:32:00.687Z,13.88
2016-05-06T06:33:00.970Z,13.8
2016-05-06T06:34:00.662Z,13.94
2016-05-06T06:35:00.805Z,13.81
2016-05-06T06:36:00.775Z,13.79
2016-05-06T06:37:00.623Z,13.92
2016-05-06T06:38:00.766Z,13.98
2016-05-06T06:39:00.753Z,13.91
2016-05-06T06:40:00.725Z,14.02
2016-05-06T06:41:01.039Z,14.1
2016-05-06T06:42:00.714Z,14.12
2016-05-06T06:43:00.701Z,14.14
2016-05-06T06:44:00.547Z,14.19
2016-05-06T06:45:00.675Z,14.17
2016-05-06T06:46:00.663Z,14.27
2016-05-06T06:47:00.650Z,14.28
2016-05-06T06:48:00.480Z,14.32
2016-05-06T06:49:00.639Z,14.34
2016-05-06T06:50:00.610Z,14.39
2016-05-06T06:51:00.613Z,14.43
2016-05-06T06:52:00.429Z,14.54
2016-05-06T06:53:00.432Z,14.44
2016-05-06T06:54:00.574Z,14.43
2016-05-06T06:55:00.390Z,14.6
2016-05-06T06:56:00.876Z,14.49
2016-05-06T06:57:00.535Z,14.6
2016-05-06T06:58:00.523Z,14.68
2016-05-06T06:59:00.509Z,14.69
2016-05-06T07:00:00.513Z,14.72
2016-05-06T07:01:00.500Z,14.75
2016-05-06T07:02:00.471Z,14.83
2016-05-06T07:03:00.349Z,14.83
2016-05-06T07:04:00.445Z,14.91
2016-05-06T07:05:00.447Z,15.05
2016-05-06T07:06:00.419Z,15.05
2016-05-06T07:07:00.406Z,15.09
2016-05-06T07:08:00.409Z,15.13
2016-05-06T07:09:00.396Z,15.27
2016-05-06T07:10:00.431Z,15.24
2016-05-06T07:11:00.995Z,15.3
2016-05-06T07:12:00.357Z,15.39
2016-05-06T07:13:00.391Z,15.39
2016-05-06T07:14:00.019Z,15.45
2016-05-06T07:15:00.333Z,15.49
2016-05-06T07:16:00.165Z,15.45
2016-05-06T07:17:00.308Z,15.51
2016-05-06T07:18:00.296Z,15.64
2016-05-06T07:19:00.127Z,15.63
2016-05-06T07:20:00.269Z,15.64
2016-05-06T07:21:00.257Z,15.68
2016-05-06T07:22:00.259Z,15.72
2016-05-06T07:23:00.251Z,15.82
2016-05-06T07:24:00.098Z,15.85
2016-05-06T07:25:00.209Z,15.96
2016-05-06T07:26:00.087Z,16.04
2016-05-06T07:27:00.184Z,16.03
2016-05-06T07:28:00.171Z,16.12
2016-05-06T07:29:00.173Z,16.16
2016-05-06T07:30:00.176Z,16.18
2016-05-06T07:31:00.148Z,16.23
2016-05-06T07:32:00.135Z,16.27
2016-05-06T07:33:00.123Z,16.26
2016-05-06T07:33:59.968Z,16.44
2016-05-06T07:35:00.111Z,16.4
2016-05-06T07:36:00.098Z,16.5
2016-05-06T07:36:59.945Z,16.53
2016-05-06T07:38:00.072Z,16.63
2016-05-06T07:39:00.060Z,16.67
2016-05-06T07:40:00.047Z,16.71
2016-05-06T07:41:00.331Z,16.78
2016-05-06T07:42:00.021Z,16.83
2016-05-06T07:43:00.024Z,16.78
2016-05-06T07:44:00.011Z,16.74
2016-05-06T07:44:59.997Z,16.8
2016-05-06T07:45:59.985Z,16.86
2016-05-06T07:46:59.972Z,16.96
2016-05-06T07:47:59.974Z,16.99
2016-05-06T07:48:59.994Z,16.95
2016-05-06T07:49:59.933Z,16.95
2016-05-06T07:50:59.623Z,17.07
2016-05-06T07:51:59.923Z,16.99
2016-05-06T07:52:59.613Z,17.1
2016-05-06T07:53:59.912Z,17.11
2016-05-06T07:54:59.743Z,17.25
2016-05-06T07:56:00.777Z,17.33
2016-05-06T07:56:59.874Z,17.4
2016-05-06T07:57:59.861Z,17.54
2016-05-06T07:58:59.865Z,17.48
2016-05-06T07:59:59.851Z,17.43
2016-05-06T08:00:59.681Z,17.47
2016-05-06T08:01:59.825Z,17.55
2016-05-06T08:02:59.828Z,17.57
2016-05-06T08:03:59.814Z,17.73
2016-05-06T08:04:59.645Z,17.81
2016-05-06T08:05:59.789Z,17.87
2016-05-06T08:06:59.776Z,17.82
2016-05-06T08:07:59.778Z,17.76
2016-05-06T08:08:59.609Z,17.85
2016-05-06T08:09:59.753Z,17.84
2016-05-06T08:10:59.817Z,18.07
2016-05-06T08:12:00.180Z,18.84
2016-05-06T08:12:59.729Z,20.1
2016-05-06T08:13:59.733Z,21.05
2016-05-06T08:14:59.719Z,21.91
2016-05-06T08:15:59.722Z,22.35
2016-05-06T08:16:59.708Z,22.09
2016-05-06T08:17:59.696Z,22.65
2016-05-06T08:18:59.714Z,23.39
2016-05-06T08:19:59.701Z,24.02
2016-05-06T08:20:59.688Z,24.05
2016-05-06T08:21:59.707Z,23.71
2016-05-06T08:22:59.694Z,23.45
2016-05-06T08:23:59.696Z,22.65
2016-05-06T08:24:59.668Z,23.26
2016-05-06T08:26:00.858Z,23.7
2016-05-06T08:26:59.517Z,24.32
2016-05-06T08:27:59.676Z,24.76
2016-05-06T08:28:59.679Z,25.37
2016-05-06T08:29:59.525Z,25.75
2016-05-06T08:30:59.668Z,26.11
2016-05-06T08:31:59.515Z,25.37
2016-05-06T08:32:59.721Z,25.79
2016-05-06T08:33:59.676Z,26.42
2016-05-06T08:34:59.507Z,26.86
2016-05-06T08:35:59.667Z,27.16
2016-05-06T08:36:59.669Z,27.36
2016-05-06T08:37:59.672Z,26.76
2016-05-06T08:38:59.674Z,26.5
2016-05-06T08:39:59.662Z,26.49
2016-05-06T08:40:59.523Z,26.4
2016-05-06T08:41:59.667Z,26.73
2016-05-06T08:42:59.669Z,26.4
2016-05-06T08:43:59.672Z,26.44
2016-05-06T08:44:59.675Z,26.47
2016-05-06T08:45:59.521Z,26.62
2016-05-06T08:46:59.664Z,27.06
2016-05-06T08:47:59.683Z,26.74
2016-05-06T08:48:59.701Z,26.22
2016-05-06T08:49:59.704Z,26.06
2016-05-06T08:50:59.519Z,25.67
2016-05-06T08:51:59.677Z,25.75
2016-05-06T08:52:59.681Z,25.39
2016-05-06T08:53:59.871Z,25.56
2016-05-06T08:54:59.671Z,25.62
2016-05-06T08:56:00.220Z,25.72
2016-05-06T08:56:59.910Z,26.09
2016-05-06T08:57:59.679Z,25.42
2016-05-06T08:58:59.713Z,24.59
2016-05-06T08:59:59.684Z,24.45
2016-05-06T09:00:59.687Z,24.77
2016-05-06T09:01:59.689Z,25.09
2016-05-06T09:02:59.677Z,24.92
2016-05-06T09:03:59.679Z,25.16
2016-05-06T09:04:59.729Z,25.42
2016-05-06T09:05:59.684Z,25.32
2016-05-06T09:06:59.531Z,25.05
2016-05-06T09:07:59.674Z,25.01
2016-05-06T09:08:59.692Z,24.75
2016-05-06T09:09:59.680Z,24.54
2016-05-06T09:10:59.964Z,24.61
2016-05-06T09:11:59.686Z,25.02
2016-05-06T09:12:59.672Z,25.61
2016-05-06T09:13:59.691Z,25.93
2016-05-06T09:14:59.677Z,26.24
2016-05-06T09:15:59.680Z,26.37
2016-05-06T09:16:59.699Z,25.8
2016-05-06T09:17:59.670Z,25.57
2016-05-06T09:18:59.672Z,25.16
2016-05-06T09:19:59.675Z,25.31
2016-05-06T09:20:59.521Z,25.22
2016-05-06T09:21:59.681Z,25.1
2016-05-06T09:22:59.683Z,25.2
2016-05-06T09:23:59.670Z,25.31
2016-05-06T09:24:59.674Z,25.43
2016-05-06T09:25:59.989Z,25.77
2016-05-06T09:26:59.679Z,26.37
2016-05-06T09:27:59.666Z,26.09
2016-05-06T09:28:59.512Z,25.65
2016-05-06T09:29:59.671Z,24.87
2016-05-06T09:30:59.673Z,25.05
2016-05-06T09:31:59.504Z,24.67
2016-05-06T09:32:59.663Z,24.47
2016-05-06T09:33:59.666Z,24.94
2016-05-06T09:34:59.669Z,25.64
2016-05-06T09:35:59.656Z,25.8
2016-05-06T09:36:59.659Z,25.97
2016-05-06T09:37:59.662Z,25.61
2016-05-06T09:38:59.664Z,25.31
2016-05-06T09:39:59.651Z,25.47
2016-05-06T09:40:59.670Z,25.69
2016-05-06T09:41:59.500Z,25.69
2016-05-06T09:42:59.659Z,25.2
2016-05-06T09:43:59.662Z,25.22
2016-05-06T09:44:59.962Z,25.31
2016-05-06T09:45:59.652Z,25.3
2016-05-06T09:46:59.655Z,25.34
2016-05-06T09:47:59.658Z,25.37
2016-05-06T09:48:59.644Z,25.3
2016-05-06T09:49:59.490Z,25.46
2016-05-06T09:50:59.478Z,25.32
2016-05-06T09:51:59.636Z,25.34
2016-05-06T09:52:59.624Z,25.34
2016-05-06T09:53:59.642Z,25.47
2016-05-06T09:54:59.660Z,25.74
2016-05-06T09:55:59.647Z,25.52
2016-05-06T09:56:59.635Z,24.54
2016-05-06T09:57:59.637Z,24.41
2016-05-06T09:58:59.624Z,24.39
2016-05-06T09:59:59.626Z,24.44
2016-05-06T10:00:59.630Z,24.54
2016-05-06T10:01:59.476Z,24.42
2016-05-06T10:02:59.478Z,24.59
2016-05-06T10:03:59.622Z,24.68
2016-05-06T10:04:59.624Z,24.76
2016-05-06T10:05:59.611Z,25.31
2016-05-06T10:06:59.630Z,25.07
2016-05-06T10:07:59.632Z,25.44
2016-05-06T10:08:59.620Z,25.84
2016-05-06T10:09:59.623Z,26.28
2016-05-06T10:11:00.328Z,26.72
2016-05-06T10:11:59.643Z,26.86
2016-05-06T10:12:59.615Z,26.32
2016-05-06T10:13:59.634Z,26.44
2016-05-06T10:14:59.636Z,26.42
2016-05-06T10:15:59.639Z,26.68
2016-05-06T10:16:59.641Z,26.79
2016-05-06T10:17:59.644Z,27.11
2016-05-06T10:18:59.647Z,27.24
2016-05-06T10:19:59.633Z,27.48
2016-05-06T10:20:59.653Z,27.64
2016-05-06T10:21:59.639Z,27.59
2016-05-06T10:22:59.658Z,27.66
2016-05-06T10:23:59.488Z,27.74
2016-05-06T10:24:59.662Z,27.91
2016-05-06T10:25:59.510Z,27.76
2016-05-06T10:26:59.512Z,27.67
2016-05-06T10:27:59.515Z,28.04
2016-05-06T10:28:59.674Z,27.46
2016-05-06T10:29:59.676Z,27.14
2016-05-06T10:30:59.679Z,27.2
2016-05-06T10:31:59.541Z,27.77
2016-05-06T10:32:59.888Z,28.23
2016-05-06T10:33:59.687Z,28.54
2016-05-06T10:34:59.690Z,28.65
2016-05-06T10:35:59.707Z,28.35
2016-05-06T10:36:59.539Z,28.54
2016-05-06T10:37:59.698Z,28.69
2016-05-06T10:38:59.700Z,28.84
2016-05-06T10:39:59.703Z,29.16
2016-05-06T10:40:59.706Z,29.4
2016-05-06T10:41:59.568Z,28.9
2016-05-06T10:42:59.758Z,29.13
2016-05-06T10:43:59.729Z,29.19
2016-05-06T10:44:59.732Z,28.78
2016-05-06T10:45:59.734Z,29.11
2016-05-06T10:46:59.581Z,29.49
2016-05-06T10:47:59.740Z,29.7
2016-05-06T10:48:59.742Z,29.03
2016-05-06T10:49:59.590Z,28.81
2016-05-06T10:50:59.764Z,28.69
2016-05-06T10:51:59.766Z,28.7
2016-05-06T10:52:59.769Z,28.59
2016-05-06T10:53:59.788Z,29.04
2016-05-06T10:54:59.634Z,29.2
2016-05-06T10:56:00.059Z,29.33
2016-05-06T10:57:00.483Z,28.8
2016-05-06T10:57:59.783Z,27.86
2016-05-06T10:58:59.801Z,27.89
2016-05-06T10:59:59.820Z,27.92
2016-05-06T11:00:59.649Z,28.07
2016-05-06T11:01:59.810Z,28.25
2016-05-06T11:02:59.655Z,28.54
2016-05-06T11:03:59.815Z,29.15
2016-05-06T11:04:59.817Z,29.5
2016-05-06T11:05:59.820Z,29.72
2016-05-06T11:06:59.682Z,30.05
2016-05-06T11:07:59.841Z,30.37
2016-05-06T11:08:59.843Z,30.46
2016-05-06T11:09:59.862Z,30.46
2016-05-06T11:10:59.849Z,29.97
2016-05-06T11:11:59.884Z,29.87
2016-05-06T11:12:59.698Z,28.78
2016-05-06T11:13:59.701Z,28.1
2016-05-06T11:14:59.907Z,27.99
2016-05-06T11:15:59.737Z,27.76
2016-05-06T11:16:59.881Z,27.74
2016-05-06T11:17:59.884Z,27.66
2016-05-06T11:18:59.730Z,27.73
2016-05-06T11:19:59.905Z,27.62
2016-05-06T11:20:59.751Z,27.92
2016-05-06T11:21:59.911Z,28.32
2016-05-06T11:22:59.913Z,28.54
2016-05-06T11:23:59.915Z,28.35
2016-05-06T11:24:59.919Z,28.63
2016-05-06T11:25:59.921Z,28.75
2016-05-06T11:27:00.330Z,28.69
2016-05-06T11:27:59.942Z,28.8
2016-05-06T11:28:59.944Z,28.93
2016-05-06T11:29:59.947Z,29.13
2016-05-06T11:30:59.825Z,29.25
2016-05-06T11:31:59.983Z,29.57
2016-05-06T11:32:59.955Z,29.37
2016-05-06T11:33:59.974Z,29.55
2016-05-06T11:34:59.991Z,29.96
2016-05-06T11:35:59.980Z,29.66
2016-05-06T11:36:59.982Z,29.72
2016-05-06T11:37:59.984Z,29.71
2016-05-06T11:38:59.988Z,29.87
2016-05-06T11:39:59.990Z,29.59
2016-05-06T11:40:59.993Z,28.95
2016-05-06T11:41:59.995Z,28.68
2016-05-06T11:43:00.013Z,28.23
2016-05-06T11:44:00.063Z,28.13
2016-05-06T11:45:00.018Z,28.31
2016-05-06T11:45:59.881Z,28.68
2016-05-06T11:47:00.040Z,28.56
2016-05-06T11:48:00.026Z,28.6
2016-05-06T11:49:00.029Z,28.69
2016-05-06T11:50:00.048Z,29.01
2016-05-06T11:51:01.723Z,29.03
2016-05-06T11:52:00.053Z,29.41
2016-05-06T11:53:00.056Z,29.41
2016-05-06T11:54:00.075Z,29.07
2016-05-06T11:55:00.061Z,28.84
2016-05-06T11:56:00.064Z,29.16
2016-05-06T11:57:00.066Z,29.16
2016-05-06T11:58:00.086Z,28.91
2016-05-06T11:59:00.510Z,29.2
2016-05-06T12:00:00.090Z,29.49
2016-05-06T12:01:00.094Z,29.56
2016-05-06T12:02:00.111Z,29.59
2016-05-06T12:03:00.114Z,29.57
2016-05-06T12:04:00.101Z,29.77
2016-05-06T12:05:00.105Z,29.87
2016-05-06T12:06:00.107Z,29.84
2016-05-06T12:07:00.124Z,29.65
2016-05-06T12:08:00.128Z,29.6
2016-05-06T12:09:00.130Z,29.4
2016-05-06T12:10:00.133Z,29.89
2016-05-06T12:11:00.135Z,29.94
2016-05-06T12:12:00.170Z,30.18
2016-05-06T12:13:00.141Z,30.56
2016-05-06T12:14:00.175Z,30.27
2016-05-06T12:15:00.178Z,30.47
2016-05-06T12:16:00.164Z,30.81
2016-05-06T12:17:00.168Z,31.3
2016-05-06T12:18:00.029Z,31.3
2016-05-06T12:19:00.235Z,30.93
2016-05-06T12:20:00.176Z,30.86
2016-05-06T12:21:00.194Z,30.07
2016-05-06T12:22:00.212Z,29.82
2016-05-06T12:23:00.200Z,29.19
2016-05-06T12:24:00.202Z,29.38
2016-05-06T12:25:00.205Z,29.43
2016-05-06T12:26:00.208Z,28.9
2016-05-06T12:27:00.242Z,29.18
2016-05-06T12:28:00.431Z,29.22
2016-05-06T12:29:00.074Z,29.55
2016-05-06T12:30:00.078Z,29.82
2016-05-06T12:31:00.252Z,29.97
2016-05-06T12:32:00.239Z,30.23
2016-05-06T12:33:00.445Z,30.47
2016-05-06T12:34:00.260Z,30.31
2016-05-06T12:35:00.107Z,29.55
2016-05-06T12:36:00.265Z,29.68
2016-05-06T12:37:00.269Z,29.29
2016-05-06T12:38:00.286Z,29.57
2016-05-06T12:39:00.273Z,29.84
2016-05-06T12:40:00.136Z,29.82
2016-05-06T12:41:00.294Z,29.82
2016-05-06T12:42:00.156Z,29.66
2016-05-06T12:43:00.300Z,29.57
2016-05-06T12:44:00.162Z,29.74
2016-05-06T12:45:00.337Z,29.89
2016-05-06T12:46:00.339Z,30.23
2016-05-06T12:47:00.342Z,30.08
2016-05-06T12:48:00.345Z,30.02
2016-05-06T12:49:00.332Z,29.35
2016-05-06T12:50:00.335Z,29.34
2016-05-06T12:51:00.353Z,29.19
2016-05-06T12:52:00.356Z,29.28
2016-05-06T12:53:00.373Z,29.1
2016-05-06T12:54:00.361Z,29.37